Terminal Aerodrome Forecast
Issued by NWS Buffalo, NY

Home | Current Version | Previous Version | Text Only | Print | Product List | Glossary On
Versions: 1 2 3 4 5 6 7 8 9 10 11 12 13 14 15 16 17 18 19 20 21 22 23 24 25 26 27 28 29 30 31 32 33 34
000
FTUS41 KBUF 010500
TAFBUF
TAF
KBUF 010520Z 0106/0206 24012KT P6SM -SN OVC025
     FM010800 30009KT P6SM -SN OVC020
     FM011000 34008KT P6SM OVC020
     FM011200 03007KT P6SM OVC020
     FM011900 06012KT 3SM -SN OVC020
     FM012000 06012KT 2SM -SN OVC020
     FM020000 06013KT 1SM -SN OVC025
     FM020300 06014KT 1/2SM SN OVC015
     FM020400 06015KT 1/2SM SN BLSN OVC015=

USA.gov is the U.S. government's official web portal to all federal, state and local government web resources and services.